Lorraine — A8IZ3 — position and weather

sailwx.info

Track history (hours):
 
Tides and Currents Weather Stations Pressure Air Temp Water Temp Dewpoint Dewpoint Depression Visibility Wind Speed Wind Dir Waves Ship Positions

Lorraine

Last reported at 2016-May-03 09:11 UTC. Time now 2016-May-05 01:03 UTC.
Position N 36°29' E 122°26'.

Length 221 m; draft 9.4 m.

Type: Ship. MMSI: 636012905.

Date/timePositionNaut miles runAvg speedWind from/ knotsBaromVisibWave heightAir tempDewpointWater temp
2016-May-03 09:11N 36°29' E 122°26'127 9.2
2016-May-02 19:26N 38°34' E 122°10'17 0.6
2016-May-01 16:17N 38°44' E 121°52'1917.1
2016-May-01 15:12N 38°29' E 121°37'17017.5
2016-May-01 05:32N 38°56' E 118°03'1111.9
2016-May-01 04:34N 38°58' E 117°48'1 0.8
2016-May-01 03:22N 38°59' E 117°47'0 0.0
2016-May-01 02:10N 38°59' E 117°47'0 0.0
2016-May-01 01:27N 38°59' E 117°47'0 0.0
2016-May-01 00:27N 38°59' E 117°47'0 0.0
2016-Apr-30 14:10N 38°59' E 117°47'0 0.0
2016-Apr-30 13:10N 38°59' E 117°47'0 0.0
2016-Apr-30 12:22N 38°59' E 117°47'0 0.0
2016-Apr-30 11:15N 38°59' E 117°47'0 0.0
2016-Apr-30 10:33N 38°59' E 117°47'5 5.0
2016-Apr-30 09:33N 38°57' E 117°53'112 7.3
2016-Apr-29 18:19N 38°41' E 120°15'  
2016-Apr-27 00:24N 23°49' E 118°30'24116.0
2016-Apr-26 09:23N 22°07' E 114°33'1316.1
2016-Apr-26 08:33N 22°07' E 114°19'1511.6
2016-Apr-26 07:18N 22°16' E 114°06'5 6.2
2016-Apr-26 06:33N 22°21' E 114°07'0 0.0
2016-Apr-26 05:33N 22°21' E 114°07'0 0.0
2016-Apr-26 04:25N 22°21' E 114°07'0 0.0
2016-Apr-26 03:31N 22°21' E 114°07'0 0.0
2016-Apr-26 02:27N 22°21' E 114°07'0 0.0
2016-Apr-26 01:24N 22°21' E 114°07'0 0.0
2016-Apr-26 00:32N 22°21' E 114°07'0 0.0
2016-Apr-25 23:29N 22°21' E 114°07'0 0.0
2016-Apr-25 22:31N 22°21' E 114°07'0 0.0
2016-Apr-25 21:31N 22°21' E 114°07'0 0.0
2016-Apr-25 19:33N 22°21' E 114°07'2 1.7
2016-Apr-25 18:34N 22°19' E 114°06'18 8.0
2016-Apr-25 16:21N 22°08' E 114°21'910.2
2016-Apr-25 15:27N 21°59' E 114°24'  
Track history (hours):
 
Tides and Currents Weather Stations Pressure Air Temp Water Temp Dewpoint Dewpoint Depression Visibility Wind Speed Wind Dir Waves Ship Positions

Lorraine

Last reported at 2016-May-03 09:11 UTC. Time now 2016-May-05 01:03 UTC.
Position N 36°29' E 122°26'.

Length 221 m; draft 9.4 m.

Type: Ship. MMSI: 636012905.

Date/timePositionNaut miles runAvg speedWind from/ knotsBaromVisibWave heightAir tempDewpointWater temp
2016-May-03 09:11N 36°29' E 122°26'127 9.2
2016-May-02 19:26N 38°34' E 122°10'17 0.6
2016-May-01 16:17N 38°44' E 121°52'1917.1
2016-May-01 15:12N 38°29' E 121°37'17017.5
2016-May-01 05:32N 38°56' E 118°03'1111.9
2016-May-01 04:34N 38°58' E 117°48'1 0.8
2016-May-01 03:22N 38°59' E 117°47'0 0.0
2016-May-01 02:10N 38°59' E 117°47'0 0.0
2016-May-01 01:27N 38°59' E 117°47'0 0.0
2016-May-01 00:27N 38°59' E 117°47'0 0.0
2016-Apr-30 14:10N 38°59' E 117°47'0 0.0
2016-Apr-30 13:10N 38°59' E 117°47'0 0.0
2016-Apr-30 12:22N 38°59' E 117°47'0 0.0
2016-Apr-30 11:15N 38°59' E 117°47'0 0.0
2016-Apr-30 10:33N 38°59' E 117°47'5 5.0
2016-Apr-30 09:33N 38°57' E 117°53'112 7.3
2016-Apr-29 18:19N 38°41' E 120°15'  
2016-Apr-27 00:24N 23°49' E 118°30'24116.0
2016-Apr-26 09:23N 22°07' E 114°33'1316.1
2016-Apr-26 08:33N 22°07' E 114°19'1511.6
2016-Apr-26 07:18N 22°16' E 114°06'5 6.2
2016-Apr-26 06:33N 22°21' E 114°07'0 0.0
2016-Apr-26 05:33N 22°21' E 114°07'0 0.0
2016-Apr-26 04:25N 22°21' E 114°07'0 0.0
2016-Apr-26 03:31N 22°21' E 114°07'0 0.0
2016-Apr-26 02:27N 22°21' E 114°07'0 0.0
2016-Apr-26 01:24N 22°21' E 114°07'0 0.0
2016-Apr-26 00:32N 22°21' E 114°07'0 0.0
2016-Apr-25 23:29N 22°21' E 114°07'0 0.0
2016-Apr-25 22:31N 22°21' E 114°07'0 0.0
2016-Apr-25 21:31N 22°21' E 114°07'0 0.0
2016-Apr-25 19:33N 22°21' E 114°07'2 1.7
2016-Apr-25 18:34N 22°19' E 114°06'18 8.0
2016-Apr-25 16:21N 22°08' E 114°21'910.2
2016-Apr-25 15:27N 21°59' E 114°24'  

Dump ship's entire track history